Terminal Aerodrome Forecast
Issued by NWS San Angelo, TX

Home | Current Version | Previous Version | Text Only | Print | Product List | Glossary On
Versions: 1 2 3 4 5 6 7 8 9 10 11 12 13 14 15 16 17
000
FTUS44 KSJT 231736
TAFABI
TAF
KABI 231736Z 2318/2418 18025G35KT P6SM SKC
     FM240400 17023G30KT P6SM BKN250
     FM240600 19016G24KT P6SM VCTS BKN035CB
     FM240900 20015G25KT P6SM BKN100
     FM241400 23020G30KT P6SM SKC=

USA.gov is the U.S. government's official web portal to all federal, state and local government web resources and services.